Time;durP1;ratioP1;P1;durP2;ratioP2;P2;SDS_P1;SDS_P2;PMS_P1;PMS_P2;Temp;Humidity;BMP_temperature;BMP_pressure;BME280_temperature;BME280_humidity;BME280_pressure;Samples;Min_cycle;Max_cycle;Signal;HPM_P1;HPM_P2
2022/05/09 00:00:11;;;;;;;3.35;1.00;;;12.00;99.90;;;;;;5052042;28;20025;-52
2022/05/09 00:02:38;;;;;;;3.70;1.75;;;12.00;99.90;;;;;;5051583;28;20024;-53
2022/05/09 00:05:05;;;;;;;1.88;1.13;;;12.00;99.90;;;;;;5052708;28;20063;-54
2022/05/09 00:07:30;;;;;;;4.90;1.60;;;11.90;99.90;;;;;;5051501;28;20487;-53
2022/05/09 00:09:56;;;;;;;2.65;1.23;;;11.90;99.90;;;;;;5052709;28;20100;-54
2022/05/09 00:12:22;;;;;;;2.83;1.30;;;11.80;99.90;;;;;;5052811;28;20029;-52
2022/05/09 00:14:48;;;;;;;2.55;1.30;;;11.80;99.90;;;;;;5052918;28;20506;-54
2022/05/09 00:17:13;;;;;;;1.33;1.10;;;11.70;99.90;;;;;;5052090;28;20028;-53
2022/05/09 00:19:39;;;;;;;1.75;1.27;;;11.60;99.90;;;;;;5051423;28;20024;-52
2022/05/09 00:22:05;;;;;;;2.58;1.27;;;11.60;99.90;;;;;;5051535;28;20025;-54
2022/05/09 00:24:30;;;;;;;3.92;1.45;;;11.60;99.90;;;;;;5052766;28;20029;-55
2022/05/09 00:26:57;;;;;;;6.38;1.40;;;11.50;99.90;;;;;;5051410;28;20067;-52
2022/05/09 00:29:23;;;;;;;10.27;1.70;;;11.60;99.90;;;;;;5051599;28;20040;-55
2022/05/09 00:31:51;;;;;;;2.28;1.20;;;11.60;99.90;;;;;;5052693;28;20037;-53
2022/05/09 00:34:18;;;;;;;1.60;1.15;;;11.60;99.90;;;;;;5051480;28;20059;-53
2022/05/09 00:36:45;;;;;;;6.45;1.27;;;11.60;99.90;;;;;;5051306;28;20025;-55
2022/05/09 00:39:12;;;;;;;2.97;1.42;;;11.50;99.90;;;;;;5051291;28;20021;-57
2022/05/09 00:41:38;;;;;;;2.95;1.30;;;11.50;99.90;;;;;;5051572;28;20025;-57
2022/05/09 00:44:09;;;;;;;2.25;1.60;;;11.50;99.90;;;;;;5051234;28;20047;-55
2022/05/09 00:46:37;;;;;;;4.55;1.50;;;11.50;99.90;;;;;;5051301;28;20031;-56
2022/05/09 00:49:10;;;;;;;3.78;1.40;;;11.50;99.90;;;;;;5051408;28;20517;-53
2022/05/09 00:51:36;;;;;;;2.47;1.48;;;11.40;99.90;;;;;;5052051;28;20035;-53
2022/05/09 00:54:03;;;;;;;1.40;1.20;;;11.40;99.90;;;;;;5051458;28;20032;-56
2022/05/09 00:56:49;;;;;;;1.90;1.23;;;11.30;99.90;;;;;;5052705;28;20047;-57
2022/05/09 00:59:18;;;;;;;3.90;1.40;;;11.40;99.90;;;;;;5054973;28;20021;-55
2022/05/09 01:01:46;;;;;;;5.28;1.38;;;11.30;99.90;;;;;;5055025;28;20021;-55
2022/05/09 01:04:16;;;;;;;3.72;1.25;;;11.30;99.90;;;;;;5054996;28;20025;-52
2022/05/09 01:06:42;;;;;;;4.88;1.52;;;11.20;99.90;;;;;;5054881;28;20029;-55
2022/05/09 01:09:10;;;;;;;2.35;1.48;;;11.20;99.90;;;;;;5056048;28;20025;-53
2022/05/09 01:11:37;;;;;;;5.93;1.35;;;11.10;99.90;;;;;;5055154;28;20025;-56
2022/05/09 01:14:22;;;;;;;4.05;1.40;;;11.10;99.90;;;;;;5055990;28;20036;-56
2022/05/09 01:16:49;;;;;;;6.18;1.27;;;11.00;99.90;;;;;;5054812;28;20047;-56
2022/05/09 01:19:42;;;;;;;2.03;1.55;;;11.00;99.90;;;;;;5054673;28;20387;-56
2022/05/09 01:22:24;;;;;;;3.00;1.17;;;11.00;99.90;;;;;;5052596;28;20036;-55
2022/05/09 01:24:51;;;;;;;;;;;11.00;99.90;;;;;;5056638;28;20113;-51
2022/05/09 01:27:17;;;;;;;3.30;1.40;;;11.00;99.90;;;;;;5055843;28;19951;-55
2022/05/09 01:30:04;;;;;;;4.70;1.30;;;10.90;99.90;;;;;;5054751;28;20029;-55
2022/05/09 01:32:47;;;;;;;2.50;1.55;;;10.90;99.90;;;;;;5054495;28;20067;-56
2022/05/09 01:35:45;;;;;;;3.03;1.35;;;11.00;99.90;;;;;;5054349;28;20028;-56
2022/05/09 01:38:17;;;;;;;4.35;1.52;;;11.00;99.90;;;;;;5043812;28;20078;-55
2022/05/09 01:40:42;;;;;;;1.45;1.20;;;11.00;99.90;;;;;;5055812;28;20096;-56
2022/05/09 01:43:08;;;;;;;3.63;0.98;;;10.90;99.90;;;;;;5055875;28;20044;-56
2022/05/09 01:45:33;;;;;;;4.45;1.23;;;10.90;99.90;;;;;;5054203;28;20078;-52
2022/05/09 01:50:43;;;;;;;3.33;1.60;;;10.80;99.90;;;;;;5055688;28;20083;-53
2022/05/09 01:53:09;;;;;;;2.38;1.40;;;10.70;99.90;;;;;;5055575;28;20032;-52
2022/05/09 01:55:35;;;;;;;2.80;1.70;;;10.70;99.90;;;;;;5055221;28;20032;-53
2022/05/09 01:58:00;;;;;;;2.15;1.45;;;10.80;99.90;;;;;;5053903;28;20021;-54
2022/05/09 02:00:26;;;;;;;4.57;1.60;;;10.90;99.90;;;;;;5053949;28;20021;-56
2022/05/09 02:02:52;;;;;;;3.20;1.45;;;10.80;99.90;;;;;;5054169;28;20029;-55
2022/05/09 02:05:17;;;;;;;2.25;1.73;;;10.80;99.90;;;;;;5055176;28;20067;-56
2022/05/09 02:07:45;;;;;;;7.93;2.90;;;10.80;99.90;;;;;;5053411;28;20029;-55
2022/05/09 02:10:11;;;;;;;4.32;1.98;;;10.70;99.90;;;;;;5054916;28;20028;-56
2022/05/09 02:12:37;;;;;;;3.85;2.22;;;10.80;99.90;;;;;;5054288;28;20112;-56
2022/05/09 02:15:03;;;;;;;6.40;2.13;;;10.90;99.90;;;;;;5055496;28;20120;-55
2022/05/09 02:17:30;;;;;;;4.65;2.03;;;10.90;99.90;;;;;;5054753;28;20016;-53
2022/05/09 02:19:56;;;;;;;3.60;1.70;;;10.80;99.90;;;;;;5053550;28;20028;-51
2022/05/09 02:22:21;;;;;;;3.58;1.45;;;10.70;99.90;;;;;;5053908;28;20020;-56
2022/05/09 02:24:47;;;;;;;4.88;2.08;;;10.80;99.90;;;;;;5054741;28;20049;-52
2022/05/09 02:27:13;;;;;;;3.17;1.83;;;10.70;99.90;;;;;;5053601;28;20017;-52
2022/05/09 02:29:39;;;;;;;6.60;1.98;;;10.60;99.90;;;;;;5054879;28;20432;-55
2022/05/09 02:32:06;;;;;;;4.88;1.85;;;10.50;99.90;;;;;;5054078;28;20031;-56
2022/05/09 02:34:32;;;;;;;4.70;2.28;;;10.50;99.90;;;;;;5054607;28;20025;-54
2022/05/09 02:36:58;;;;;;;3.85;1.75;;;10.50;99.90;;;;;;5055019;28;20017;-55
2022/05/09 02:39:24;;;;;;;2.40;1.35;;;10.40;99.90;;;;;;5053159;28;20032;-56
2022/05/09 02:41:49;;;;;;;6.13;1.75;;;10.40;99.90;;;;;;5053167;28;20060;-56
2022/05/09 02:44:15;;;;;;;3.08;1.52;;;10.30;99.90;;;;;;5054093;28;20024;-55
2022/05/09 02:46:42;;;;;;;3.63;1.90;;;10.20;99.90;;;;;;5053118;28;20025;-53
2022/05/09 02:49:08;;;;;;;5.70;1.50;;;10.30;99.90;;;;;;5054256;28;20021;-55
2022/05/09 02:51:34;;;;;;;4.13;1.70;;;10.20;99.90;;;;;;5053080;28;20036;-55
2022/05/09 02:54:00;;;;;;;4.68;1.80;;;10.20;99.90;;;;;;5052899;28;20036;-56
2022/05/09 02:56:26;;;;;;;4.22;1.88;;;10.20;99.90;;;;;;5052887;28;20075;-55
2022/05/09 02:58:52;;;;;;;2.67;1.30;;;10.20;99.90;;;;;;5054283;28;20531;-55
2022/05/09 03:01:18;;;;;;;3.83;1.90;;;10.20;99.90;;;;;;5052858;28;20052;-55
2022/05/09 03:06:28;;;;;;;3.33;1.70;;;10.30;99.90;;;;;;5054460;28;20410;-55
2022/05/09 03:08:54;;;;;;;5.93;1.67;;;10.40;99.90;;;;;;5053820;28;20025;-54
2022/05/09 03:11:19;;;;;;;3.22;1.55;;;10.30;99.90;;;;;;5054005;28;20065;-54
2022/05/09 03:13:45;;;;;;;2.60;1.50;;;10.20;99.90;;;;;;5052507;28;20036;-56
2022/05/09 03:16:11;;;;;;;5.63;1.83;;;10.20;99.90;;;;;;5053833;28;20564;-59
2022/05/09 03:18:37;;;;;;;4.38;1.80;;;10.20;99.90;;;;;;5053143;28;20025;-56
2022/05/09 03:21:04;;;;;;;3.97;1.95;;;10.20;99.90;;;;;;5053428;28;20025;-58
2022/05/09 03:23:30;;;;;;;2.60;1.70;;;10.20;99.90;;;;;;5053638;28;20108;-59
2022/05/09 03:25:56;;;;;;;3.45;2.00;;;10.10;99.90;;;;;;5052228;28;20116;-59
2022/05/09 03:28:24;;;;;;;5.78;2.20;;;10.00;99.90;;;;;;5053458;28;20441;-59
2022/05/09 03:30:52;;;;;;;3.30;2.15;;;9.90;99.90;;;;;;5052201;28;20086;-56
2022/05/09 03:33:20;;;;;;;2.83;1.60;;;9.80;99.90;;;;;;5052488;28;20021;-58
2022/05/09 03:35:46;;;;;;;4.80;1.75;;;9.80;99.90;;;;;;5053878;28;20072;-55
2022/05/09 03:38:12;;;;;;;2.67;1.58;;;9.90;99.90;;;;;;5052143;28;20047;-54
2022/05/09 03:40:38;;;;;;;5.80;1.92;;;10.00;99.90;;;;;;5053317;28;20112;-57
2022/05/09 03:43:05;;;;;;;4.40;2.05;;;10.00;99.90;;;;;;5052318;28;20025;-57
2022/05/09 03:45:31;;;;;;;5.72;2.00;;;9.90;99.90;;;;;;5052784;28;20025;-55
2022/05/09 03:47:57;;;;;;;3.53;1.70;;;9.90;99.90;;;;;;5051925;28;20609;-57
2022/05/09 03:50:23;;;;;;;4.85;2.45;;;9.90;99.90;;;;;;5053397;28;20029;-59
2022/05/09 03:52:48;;;;;;;5.60;1.60;;;9.90;99.90;;;;;;5051838;28;20029;-56
2022/05/09 03:55:15;;;;;;;3.67;2.67;;;9.90;99.90;;;;;;5053018;28;20031;-59
2022/05/09 03:57:49;;;;;;;6.75;2.40;;;9.90;99.90;;;;;;5053048;28;20021;-57
2022/05/09 04:00:15;;;;;;;3.20;1.70;;;9.90;99.90;;;;;;5052614;28;20074;-58
2022/05/09 04:02:42;;;;;;;8.70;2.38;;;10.00;99.90;;;;;;5052201;28;20434;-57
2022/05/09 04:05:14;;;;;;;5.93;1.65;;;10.10;99.90;;;;;;5051765;28;20075;-56
2022/05/09 04:07:39;;;;;;;4.80;2.13;;;10.20;99.90;;;;;;5051729;28;20032;-58
2022/05/09 04:10:05;;;;;;;6.80;2.25;;;10.40;99.90;;;;;;5052900;28;20037;-56
2022/05/09 04:12:31;;;;;;;3.58;1.80;;;10.40;99.90;;;;;;5051606;28;20040;-57
2022/05/09 04:17:49;;;;;;;;;;;10.60;99.90;;;;;;5052522;28;20458;-58
2022/05/09 04:20:14;;;;;;;3.17;1.85;;;10.60;99.90;;;;;;5052981;28;19992;-58
2022/05/09 04:22:40;;;;;;;2.30;1.80;;;10.60;99.90;;;;;;5051441;28;20025;-59
2022/05/09 04:25:06;;;;;;;3.25;1.65;;;10.60;99.90;;;;;;5051520;28;20033;-58
2022/05/09 04:27:32;;;;;;;3.47;1.90;;;10.60;99.90;;;;;;5051410;28;20029;-59
2022/05/09 04:29:59;;;;;;;4.15;2.00;;;10.70;99.90;;;;;;5051720;28;20025;-59
2022/05/09 04:32:24;;;;;;;18.20;2.08;;;10.90;99.90;;;;;;5057160;28;20149;-59
2022/05/09 04:34:50;;;;;;;3.95;1.80;;;11.20;99.90;;;;;;5055872;28;20120;-56
2022/05/09 04:37:15;;;;;;;4.30;1.90;;;11.50;99.90;;;;;;5057652;28;20029;-59
2022/05/09 04:39:41;;;;;;;6.22;2.10;;;11.70;99.90;;;;;;5055760;28;20028;-59
2022/05/09 04:42:09;;;;;;;4.25;1.77;;;11.90;99.90;;;;;;5057204;28;20387;-59
2022/05/09 04:44:35;;;;;;;6.10;1.70;;;12.10;99.90;;;;;;5057329;28;20025;-57
2022/05/09 04:47:00;;;;;;;3.25;1.58;;;12.40;99.90;;;;;;5057599;28;20082;-60
2022/05/09 04:49:26;;;;;;;5.05;1.85;;;12.80;99.90;;;;;;5057257;28;20075;-58
2022/05/09 04:51:52;;;;;;;4.30;1.73;;;13.10;99.90;;;;;;5057507;28;20036;-56
2022/05/09 04:54:17;;;;;;;8.73;1.98;;;13.40;99.90;;;;;;5056772;28;20110;-58
2022/05/09 04:56:43;;;;;;;6.35;1.83;;;13.70;99.90;;;;;;5055570;28;20049;-57
2022/05/09 04:59:09;;;;;;;5.68;2.00;;;14.00;99.90;;;;;;5055687;28;20047;-60
2022/05/09 05:01:34;;;;;;;5.38;1.58;;;14.30;99.90;;;;;;5056702;28;20075;-59
2022/05/09 05:04:00;;;;;;;6.25;1.42;;;14.70;99.90;;;;;;5055414;28;20032;-60
2022/05/09 05:06:26;;;;;;;5.63;1.50;;;15.10;99.90;;;;;;5055371;28;20052;-60
2022/05/09 05:08:51;;;;;;;3.65;1.60;;;15.50;99.90;;;;;;5055297;28;20475;-60
2022/05/09 05:11:17;;;;;;;6.40;2.10;;;15.80;99.90;;;;;;5056564;28;20029;-60
2022/05/09 05:13:42;;;;;;;6.25;1.65;;;16.10;99.90;;;;;;5057261;28;20041;-58
2022/05/09 05:16:08;;;;;;;6.78;1.70;;;16.30;99.90;;;;;;5055523;28;20052;-60
2022/05/09 05:18:34;;;;;;;4.22;1.58;;;16.60;99.90;;;;;;5056445;28;20391;-58
2022/05/09 05:21:11;;;;;;;2.88;1.70;;;17.00;99.90;;;;;;5055996;28;20090;-57
2022/05/09 05:23:38;;;;;;;6.82;2.20;;;17.30;99.90;;;;;;5055992;28;20025;-58
2022/05/09 05:26:04;;;;;;;3.38;2.03;;;17.50;99.90;;;;;;5055053;28;20422;-57
2022/05/09 05:28:32;;;;;;;5.05;1.90;;;17.80;99.90;;;;;;5056117;28;20106;-58
2022/05/09 05:31:14;;;;;;;4.22;1.50;;;18.20;99.90;;;;;;5054910;28;20025;-58
2022/05/09 05:33:39;;;;;;;;;;;18.60;99.90;;;;;;5055279;28;20032;-57
2022/05/09 05:36:05;;;;;;;3.70;1.73;;;18.90;99.90;;;;;;5056178;28;19904;-56
2022/05/09 05:38:31;;;;;;;3.22;1.83;;;19.20;99.90;;;;;;5056267;28;20074;-60
2022/05/09 05:40:59;;;;;;;3.05;1.70;;;19.40;99.90;;;;;;5056051;28;20102;-61
2022/05/09 05:43:25;;;;;;;7.03;2.15;;;19.90;99.90;;;;;;5054018;28;20025;-61
2022/05/09 05:45:57;;;;;;;6.60;2.20;;;20.20;99.90;;;;;;5054994;28;20024;-61
2022/05/09 05:48:24;;;;;;;3.50;1.58;;;20.60;99.90;;;;;;5054793;28;20044;-61
2022/05/09 05:50:50;;;;;;;6.47;1.90;;;20.80;99.90;;;;;;5056058;28;20024;-61
2022/05/09 05:53:16;;;;;;;6.13;1.77;;;21.00;99.90;;;;;;5055728;28;20021;-60
2022/05/09 05:55:42;;;;;;;6.32;1.63;;;21.30;99.90;;;;;;5054702;28;20025;-61
2022/05/09 05:58:08;;;;;;;3.95;1.63;;;21.80;99.90;;;;;;5054434;28;20039;-59
2022/05/09 06:00:33;;;;;;;4.25;1.95;;;22.40;99.90;;;;;;5055556;28;20017;-61
2022/05/09 06:02:59;;;;;;;5.13;1.67;;;22.30;99.90;;;;;;5055213;28;20028;-61
2022/05/09 06:05:25;;;;;;;2.70;1.65;;;22.60;99.90;;;;;;5054877;28;20021;-61
2022/05/09 06:07:55;;;;;;;3.85;1.65;;;22.80;98.50;;;;;;5054184;28;20028;-61
2022/05/09 06:10:22;;;;;;;5.40;2.03;;;23.10;98.60;;;;;;5055401;28;20021;-60
2022/05/09 06:12:48;;;;;;;6.25;2.15;;;23.20;97.40;;;;;;5054414;28;20048;-61
2022/05/09 06:15:25;;;;;;;2.58;1.75;;;23.30;94.40;;;;;;5053934;28;20033;-61
2022/05/09 06:17:51;;;;;;;5.25;1.83;;;23.50;98.30;;;;;;5054806;28;20021;-61
2022/05/09 06:20:18;;;;;;;4.60;1.90;;;23.70;93.80;;;;;;5055460;28;20049;-61
2022/05/09 06:22:44;;;;;;;7.43;2.00;;;24.20;95.20;;;;;;5054254;28;20106;-62
2022/05/09 06:25:12;;;;;;;5.18;1.73;;;24.70;92.00;;;;;;5055217;28;20064;-61
2022/05/09 06:27:38;;;;;;;4.70;2.30;;;24.90;93.60;;;;;;5054816;28;20065;-61
2022/05/09 06:30:06;;;;;;;7.10;2.42;;;25.30;90.50;;;;;;5054110;28;20052;-61
2022/05/09 06:32:32;;;;;;;3.05;1.70;;;26.00;89.00;;;;;;5054303;28;20032;-61
2022/05/09 06:35:00;;;;;;;6.93;2.30;;;26.20;87.80;;;;;;5053978;28;20483;-61
2022/05/09 06:37:26;;;;;;;4.28;1.98;;;26.20;83.90;;;;;;5054055;28;20092;-61
2022/05/09 06:39:52;;;;;;;6.88;2.33;;;26.40;84.60;;;;;;5053911;28;20020;-62
2022/05/09 06:42:44;;;;;;;5.28;1.92;;;26.40;80.60;;;;;;5053538;28;20028;-59
2022/05/09 06:45:10;;;;;;;4.57;1.92;;;26.50;84.80;;;;;;5054896;28;20036;-61
2022/05/09 06:47:44;;;;;;;3.28;1.50;;;27.30;80.40;;;;;;5054847;28;20021;-62
2022/05/09 06:50:10;;;;;;;4.00;1.60;;;27.90;79.30;;;;;;5053434;28;20083;-61
2022/05/09 06:52:36;;;;;;;4.25;1.60;;;28.20;77.10;;;;;;5053465;28;20029;-60
2022/05/09 06:55:02;;;;;;;6.90;1.73;;;28.90;76.30;;;;;;5052334;28;20025;-61
2022/05/09 06:57:28;;;;;;;5.93;1.80;;;29.40;72.80;;;;;;5054593;28;20025;-61
2022/05/09 06:59:54;;;;;;;6.30;1.83;;;29.60;72.70;;;;;;5054527;28;20070;-60
2022/05/09 07:02:19;;;;;;;7.38;1.67;;;29.70;72.70;;;;;;5053499;28;20021;-61
2022/05/09 07:04:45;;;;;;;8.13;1.90;;;30.20;69.80;;;;;;5054998;28;20032;-61
2022/05/09 07:07:10;;;;;;;3.20;1.58;;;30.40;67.60;;;;;;5054365;28;20024;-60
2022/05/09 07:09:36;;;;;;;5.95;1.92;;;30.40;68.60;;;;;;5054597;28;20021;-61
2022/05/09 07:12:02;;;;;;;6.70;2.22;;;30.60;65.90;;;;;;5053084;28;20035;-61
2022/05/09 07:14:27;;;;;;;3.22;1.83;;;30.80;66.10;;;;;;5053030;28;20029;-62
2022/05/09 07:16:53;;;;;;;6.40;1.70;;;31.20;66.10;;;;;;5052977;28;20018;-59
2022/05/09 07:19:19;;;;;;;7.43;1.60;;;30.90;63.70;;;;;;5052933;28;20021;-62
2022/05/09 07:21:44;;;;;;;5.57;2.00;;;31.20;66.10;;;;;;5053408;28;20028;-59
2022/05/09 07:24:10;;;;;;;6.68;2.00;;;31.70;64.70;;;;;;5052681;28;20054;-62
2022/05/09 07:26:36;;;;;;;8.07;2.10;;;32.60;62.70;;;;;;5053050;28;20055;-60
2022/05/09 07:29:04;;;;;;;11.15;2.40;;;33.40;60.80;;;;;;5053092;28;20059;-62
2022/05/09 07:31:31;;;;;;;6.40;2.05;;;32.90;59.00;;;;;;5052987;28;20056;-62
2022/05/09 07:33:56;;;;;;;5.20;2.05;;;33.40;59.80;;;;;;5053840;28;20055;-61
2022/05/09 07:36:22;;;;;;;8.68;2.08;;;33.60;57.80;;;;;;5052917;28;20017;-62
2022/05/09 07:38:47;;;;;;;8.73;2.30;;;32.90;57.70;;;;;;5053784;28;20021;-61
2022/05/09 07:41:13;;;;;;;11.80;2.05;;;32.20;57.70;;;;;;5052503;28;20021;-61
2022/05/09 07:43:39;;;;;;;3.67;1.80;;;32.60;59.50;;;;;;5052404;28;20013;-62
2022/05/09 07:46:04;;;;;;;2.63;1.77;;;32.80;57.90;;;;;;5053380;28;20033;-62
2022/05/09 07:48:30;;;;;;;7.05;2.05;;;32.90;60.10;;;;;;5052585;28;20055;-59
2022/05/09 07:50:58;;;;;;;3.28;2.15;;;33.60;59.30;;;;;;5053443;28;20021;-59
2022/05/09 07:53:31;;;;;;;5.38;2.33;;;33.00;58.50;;;;;;5053519;28;20025;-60
2022/05/09 07:55:56;;;;;;;6.35;2.08;;;33.80;56.80;;;;;;5052248;28;20029;-59
2022/05/09 07:58:23;;;;;;;8.35;2.40;;;34.10;58.10;;;;;;5052181;28;20028;-60
2022/05/09 08:00:49;;;;;;;6.93;2.63;;;35.00;55.20;;;;;;5052306;28;20021;-60
2022/05/09 08:03:20;;;;;;;11.52;2.00;;;35.60;55.30;;;;;;5052535;28;20029;-59
2022/05/09 08:05:46;;;;;;;4.00;1.90;;;35.50;54.10;;;;;;5053324;28;20131;-60
2022/05/09 08:08:12;;;;;;;13.52;3.45;;;35.80;54.10;;;;;;5052199;28;20021;-60
2022/05/09 08:10:39;;;;;;;8.48;2.28;;;36.10;53.00;;;;;;5052454;28;20082;-60
2022/05/09 08:13:06;;;;;;;4.30;2.22;;;36.20;53.20;;;;;;5051934;28;20028;-60
2022/05/09 08:15:34;;;;;;;4.45;2.03;;;35.50;52.10;;;;;;5053556;28;20380;-59
2022/05/09 08:18:01;;;;;;;5.28;2.15;;;34.60;53.30;;;;;;5053690;28;20021;-56
2022/05/09 08:20:30;;;;;;;10.80;2.35;;;35.10;53.80;;;;;;5053172;28;20017;-52
2022/05/09 08:23:06;;;;;;;6.45;2.38;;;35.50;53.40;;;;;;5053258;28;20448;-55
2022/05/09 08:25:36;;;;;;;7.75;2.10;;;36.60;52.80;;;;;;5052782;28;20029;-56
2022/05/09 08:28:02;;;;;;;7.88;3.45;;;36.40;52.60;;;;;;5052843;28;20032;-56
2022/05/09 08:30:33;;;;;;;7.07;2.92;;;36.80;51.90;;;;;;5051916;28;20025;-57
2022/05/09 08:33:17;;;;;;;9.40;2.38;;;37.60;50.60;;;;;;5052805;28;20024;-56
2022/05/09 08:35:48;;;;;;;11.18;2.65;;;38.10;49.90;;;;;;5051753;28;20047;-55
2022/05/09 08:38:14;;;;;;;4.95;2.22;;;37.30;49.50;;;;;;5053079;28;20031;-56
2022/05/09 08:41:01;;;;;;;6.30;2.45;;;37.40;50.20;;;;;;5052029;28;20057;-55
2022/05/09 08:43:40;;;;;;;6.80;2.40;;;37.10;50.90;;;;;;5051842;28;20033;-51
2022/05/09 08:46:18;;;;;;;3.80;2.13;;;37.50;50.70;;;;;;5052921;28;20348;-57
2022/05/09 08:49:08;;;;;;;5.05;2.20;;;38.20;50.20;;;;;;5051669;28;20024;-57
2022/05/09 08:51:59;;;;;;;8.55;2.53;;;37.80;50.10;;;;;;5052523;28;20045;-55
2022/05/09 08:54:26;;;;;;;9.20;2.58;;;38.50;50.00;;;;;;5051687;28;20109;-53
2022/05/09 08:56:58;;;;;;;4.35;2.55;;;37.30;49.00;;;;;;5051695;28;20021;-55
2022/05/09 08:59:34;;;;;;;7.40;2.20;;;35.90;51.50;;;;;;5052658;28;20021;-56
2022/05/09 09:02:08;;;;;;;9.82;2.50;;;35.80;52.00;;;;;;5053291;28;20028;-55
2022/05/09 09:04:36;;;;;;;5.28;2.58;;;36.20;52.60;;;;;;5051867;28;20025;-56
2022/05/09 09:07:12;;;;;;;3.83;2.22;;;35.90;51.90;;;;;;5051591;28;20025;-54
2022/05/09 09:09:56;;;;;;;4.15;2.30;;;36.10;52.00;;;;;;5052840;28;20070;-54
2022/05/09 09:12:37;;;;;;;7.50;2.70;;;36.90;52.00;;;;;;5051549;28;20463;-56
2022/05/09 09:15:29;;;;;;;6.03;2.42;;;37.90;50.30;;;;;;5053417;28;20031;-56
2022/05/09 09:18:06;;;;;;;4.95;2.58;;;38.50;49.50;;;;;;5053235;28;20017;-56
2022/05/09 09:20:39;;;;;;;4.63;2.17;;;38.80;49.90;;;;;;5055142;28;20021;-53
2022/05/09 09:23:19;;;;;;;5.28;2.38;;;39.00;51.80;;;;;;5055527;28;20059;-55
2022/05/09 09:26:26;;;;;;;9.32;3.15;;;39.00;49.50;;;;;;5055155;28;20025;-57
2022/05/09 09:28:56;;;;;;;4.47;2.72;;;38.10;49.80;;;;;;5054978;28;20025;-55
2022/05/09 09:31:36;;;;;;;5.18;2.65;;;38.30;50.40;;;;;;5055034;28;20082;-52
2022/05/09 09:34:46;;;;;;;5.88;2.88;;;38.80;51.10;;;;;;5056161;28;20025;-54
2022/05/09 09:37:33;;;;;;;7.10;3.22;;;39.40;50.20;;;;;;5054868;28;20025;-52
2022/05/09 09:39:59;;;;;;;5.43;2.90;;;38.60;49.70;;;;;;5054748;28;20017;-57
2022/05/09 09:42:25;;;;;;;7.75;2.83;;;38.20;51.50;;;;;;5054783;28;20025;-54
2022/05/09 09:44:53;;;;;;;7.40;2.92;;;38.60;50.90;;;;;;5054818;28;20083;-55
2022/05/09 09:47:18;;;;;;;4.15;2.78;;;39.20;51.00;;;;;;5056228;28;20538;-55
2022/05/09 09:49:47;;;;;;;5.50;2.58;;;38.70;50.80;;;;;;5054596;28;20116;-53
2022/05/09 09:52:25;;;;;;;9.60;3.90;;;38.70;49.40;;;;;;5055890;28;20035;-54
2022/05/09 09:54:53;;;;;;;6.00;3.83;;;38.60;49.50;;;;;;5056436;28;20044;-53
2022/05/09 09:57:22;;;;;;;5.85;3.10;;;36.50;50.70;;;;;;5054394;28;20024;-56
2022/05/09 09:59:48;;;;;;;7.45;3.40;;;36.30;51.60;;;;;;5054379;28;20373;-56
2022/05/09 10:02:27;;;;;;;5.50;3.55;;;35.20;53.50;;;;;;5055666;28;20100;-56
2022/05/09 10:04:57;;;;;;;5.57;3.20;;;35.30;54.60;;;;;;5054378;28;20025;-55
2022/05/09 10:07:28;;;;;;;7.90;3.58;;;35.70;53.80;;;;;;5055572;28;20066;-55
2022/05/09 10:10:12;;;;;;;7.05;4.05;;;35.60;53.60;;;;;;5055475;28;20028;-53
2022/05/09 10:12:48;;;;;;;7.20;3.75;;;34.50;54.00;;;;;;5054251;28;20390;-55
2022/05/09 10:15:25;;;;;;;4.93;3.45;;;35.10;54.00;;;;;;5055188;28;20059;-53
2022/05/09 10:17:51;;;;;;;5.38;2.58;;;34.60;52.90;;;;;;5055634;28;20025;-54
2022/05/09 10:20:29;;;;;;;6.72;3.38;;;34.20;54.40;;;;;;5055245;28;20078;-54
2022/05/09 10:26:23;;;;;;;4.00;3.33;;;32.40;56.30;;;;;;5053166;28;20021;-53
2022/05/09 10:28:54;;;;;;;5.28;3.33;;;31.90;56.80;;;;;;5052182;28;20112;-50
2022/05/09 10:31:28;;;;;;;5.07;3.45;;;31.20;56.20;;;;;;5053942;28;20029;-49
2022/05/09 10:34:07;;;;;;;6.45;3.15;;;30.70;59.20;;;;;;5054672;28;20033;-49
2022/05/09 10:36:46;;;;;;;6.18;3.35;;;30.20;59.40;;;;;;5055486;28;20079;-49
2022/05/09 10:39:21;;;;;;;3.00;2.70;;;29.50;59.50;;;;;;5053769;28;20025;-55
2022/05/09 10:41:52;;;;;;;5.70;3.80;;;28.80;62.20;;;;;;5055015;28;20387;-53
2022/05/09 10:44:41;;;;;;;5.57;3.28;;;28.10;62.90;;;;;;5053564;28;20029;-55
2022/05/09 10:47:30;;;;;;;6.00;3.25;;;27.60;63.40;;;;;;5055106;28;20112;-56
2022/05/09 10:50:16;;;;;;;4.65;2.70;;;27.90;65.70;;;;;;5054614;28;20035;-57
2022/05/09 10:53:29;;;;;;;3.97;3.13;;;28.00;63.90;;;;;;5055299;28;20045;-52
2022/05/09 10:56:15;;;;;;;4.07;3.05;;;27.10;62.70;;;;;;5047759;28;20032;-57
2022/05/09 10:58:43;;;;;;;4.10;2.55;;;26.30;67.10;;;;;;5053287;28;20064;-53
2022/05/09 11:01:16;;;;;;;4.35;2.90;;;26.20;67.90;;;;;;5053179;28;20021;-56
2022/05/09 11:03:44;;;;;;;6.47;3.30;;;26.50;67.90;;;;;;5053465;28;20021;-57
2022/05/09 11:06:47;;;;;;;4.00;2.83;;;26.30;67.20;;;;;;5054377;28;20108;-54
2022/05/09 11:09:35;;;;;;;5.22;3.03;;;26.10;67.80;;;;;;5053124;28;20029;-56
2022/05/09 11:12:24;;;;;;;4.97;3.00;;;25.60;69.40;;;;;;5054565;28;20067;-55
2022/05/09 11:14:59;;;;;;;4.18;2.72;;;25.80;69.90;;;;;;5054030;28;20037;-54
2022/05/09 11:17:43;;;;;;;3.90;3.15;;;25.50;69.90;;;;;;5052949;28;20025;-56
2022/05/09 11:20:26;;;;;;;8.07;3.80;;;25.90;70.90;;;;;;5054371;28;20530;-51
2022/05/09 11:23:01;;;;;;;4.78;2.92;;;25.50;70.20;;;;;;5052888;28;20017;-51
2022/05/09 11:25:46;;;;;;;4.22;3.67;;;25.20;70.80;;;;;;5052771;28;20119;-53
2022/05/09 11:28:24;;;;;;;6.03;3.60;;;24.30;72.90;;;;;;5052782;28;20036;-52
2022/05/09 11:31:18;;;;;;;6.90;3.60;;;23.90;71.90;;;;;;5053907;28;20032;-53
2022/05/09 11:33:58;;;;;;;2.97;2.47;;;23.80;71.90;;;;;;5053884;28;20021;-52
2022/05/09 11:36:44;;;;;;;6.55;2.70;;;23.80;73.80;;;;;;5052694;28;20021;-56
2022/05/09 11:39:19;;;;;;;7.22;3.83;;;24.20;73.40;;;;;;5053388;28;20025;-52
2022/05/09 11:45:14;;;;;;;5.65;3.42;;;23.70;73.50;;;;;;5054263;28;20087;-51
2022/05/09 11:47:52;;;;;;;4.38;2.35;;;23.80;74.20;;;;;;5053760;28;20025;-55
2022/05/09 11:50:30;;;;;;;5.35;3.10;;;24.10;73.70;;;;;;5052757;28;20029;-53
2022/05/09 11:52:59;;;;;;;3.65;2.85;;;24.40;74.60;;;;;;5053215;28;20036;-51
2022/05/09 11:55:26;;;;;;;6.22;2.97;;;24.10;71.20;;;;;;5052377;28;20036;-52
2022/05/09 11:57:55;;;;;;;3.92;2.70;;;24.00;73.10;;;;;;5053567;28;20049;-54
2022/05/09 12:00:29;;;;;;;3.15;2.80;;;24.10;71.80;;;;;;5052257;28;20186;-52
2022/05/09 12:02:57;;;;;;;9.23;3.10;;;24.10;71.70;;;;;;5053459;28;20021;-54
2022/05/09 12:05:31;;;;;;;5.88;2.30;;;24.20;71.90;;;;;;5052303;28;20116;-53
2022/05/09 12:08:02;;;;;;;4.38;3.00;;;24.30;72.00;;;;;;5052346;28;20032;-55
2022/05/09 12:10:30;;;;;;;3.53;2.40;;;24.10;71.10;;;;;;5052282;28;20454;-55
2022/05/09 12:13:01;;;;;;;4.55;2.60;;;24.10;74.50;;;;;;5053242;28;20025;-54
2022/05/09 12:15:26;;;;;;;;;;;24.40;73.40;;;;;;5054324;28;20085;-55
2022/05/09 12:17:57;;;;;;;3.13;2.38;;;24.70;70.30;;;;;;5053462;28;19944;-52
2022/05/09 12:20:29;;;;;;;5.57;2.55;;;24.90;70.70;;;;;;5051978;28;20060;-55
2022/05/09 12:22:56;;;;;;;5.43;2.90;;;25.10;71.30;;;;;;5052085;28;20132;-54
2022/05/09 12:25:38;;;;;;;3.55;2.38;;;24.80;71.60;;;;;;5052029;28;20063;-53
2022/05/09 12:28:16;;;;;;;4.78;3.13;;;24.90;71.70;;;;;;5051954;28;20036;-53
2022/05/09 12:30:52;;;;;;;7.32;2.90;;;24.90;71.40;;;;;;5053067;28;20031;-51
2022/05/09 12:33:24;;;;;;;4.32;2.53;;;24.70;72.90;;;;;;5053137;28;20542;-55
2022/05/09 12:35:53;;;;;;;5.00;2.92;;;24.90;72.90;;;;;;5051996;28;20052;-54
2022/05/09 12:38:24;;;;;;;5.97;2.80;;;24.80;69.50;;;;;;5052756;28;20028;-56
2022/05/09 12:41:24;;;;;;;3.38;2.50;;;24.60;70.30;;;;;;5053186;28;20495;-57
2022/05/09 12:44:10;;;;;;;3.17;2.20;;;24.60;71.20;;;;;;5020147;28;20127;-57
2022/05/09 12:46:44;;;;;;;5.95;2.08;;;24.60;70.10;;;;;;5053422;28;20021;-52
2022/05/09 12:49:11;;;;;;;3.08;2.03;;;24.40;71.60;;;;;;5052611;28;20018;-57
2022/05/09 12:51:49;;;;;;;4.25;2.53;;;24.50;70.70;;;;;;5054412;28;20025;-56
2022/05/09 12:54:19;;;;;;;4.35;2.72;;;24.30;70.30;;;;;;5056594;28;20025;-54
2022/05/09 12:56:53;;;;;;;2.63;2.05;;;24.40;71.90;;;;;;5055584;28;20021;-55
2022/05/09 12:59:20;;;;;;;5.32;3.10;;;24.50;73.10;;;;;;5056880;28;20554;-53
2022/05/09 13:01:55;;;;;;;3.60;2.67;;;24.60;72.50;;;;;;5057107;28;20025;-55
2022/05/09 13:04:37;;;;;;;3.03;2.50;;;24.70;71.60;;;;;;5055625;28;20057;-57
2022/05/09 13:07:06;;;;;;;3.10;2.25;;;24.70;72.90;;;;;;5057246;28;20032;-54
2022/05/09 13:09:35;;;;;;;4.68;2.03;;;24.80;73.10;;;;;;5055357;28;20029;-55
2022/05/09 13:12:05;;;;;;;3.60;2.10;;;24.80;72.70;;;;;;5056726;28;20033;-53
2022/05/09 13:14:46;;;;;;;3.65;2.00;;;24.90;71.10;;;;;;5055227;28;20114;-53
2022/05/09 13:17:21;;;;;;;8.55;2.55;;;24.90;70.60;;;;;;5056631;28;20050;-58
2022/05/09 13:19:52;;;;;;;4.80;2.72;;;24.70;67.70;;;;;;5056572;28;20017;-52